Aviation Digital Data Service (ADDS)

Output produced by METARs form (1610 UTC 30 August 2014)
found at http://aviationweather.gov/adds/metars/
 
KVQQ 301120Z 3012/3112 17003KT P6SM SCT090 
     FM301500 18005KT P6SM SCT035 
     FM302000 13010KT P6SM VCTS SCT020 BKN035CB BKN120 
     FM310000 12007KT P6SM VCSH SCT030 BKN120 
     FM310300 18003KT P6SM FEW030 SCT120 BKN250